Bryson City, NC (28713)

19:45 EST le 30 janvier 2015 (GMT -0500)
Buckner Branch | Change Station
CLOSE
Current Station
Stations météorologiques personnelles
Location: Bryson City, NC
Altitude: 1900 ft
Stations météo à proximité

Alt. 1900 ft 35.42 °N, 83.48 °W | Updated 14 minutes ago

Ciel dégagé
Ciel dégagé
33.1 ° F
Paraît 33 ° F
N
0.0
Vent Variable Vent de SO

Aujourd'hui
Haut(e) -- | Bas -- ° F
--% Risque de précip.
Hier
Haut(e) -- | Bas -- ° F
Precip. -- pouce
7:35 AM 5:59 PM
Lune gibbeuse croissante, 86% visible
Pression 30.32 pouce
Visibilité 10.0 Miles terrestres
Nuages Ciel dégagé
Refroidissement éolien 33 ° F
Point de rosée 16 ° F
Humidité 49%
Précipitations 0.00 pouce
Profondeur de la couche neigeuse Non disponible.
UV 0 sur 12
Pollen .60 sur 12
Qualité de l'air Non disponible.
Flu Activity Non disponible.
METAR KRHP 310035Z AUTO 07006KT 10SM CLR 01/M08 A3032 RMK AO2 T00061076

More Conditions Fewer Conditions

Pression 30.32 pouce
Visibilité 10.0 Miles terrestres
Nuages Ciel dégagé
Refroidissement éolien 33 ° F
Point de rosée 16 ° F
Humidité 49%
Précipitations 0.00 pouce
Profondeur de la couche neigeuse Non disponible.
UV 0 sur 12
Pollen .60 sur 12
Qualité de l'air Non disponible.
Flu Activity Non disponible.
METAR KRHP 310035Z AUTO 07006KT 10SM CLR 01/M08 A3032 RMK AO2 T00061076

More Conditions Fewer Conditions

10-Day Weather Forecast

Almanac

Astronomie

Jan. 30, 2015 Lever Coucher
Temps réel
Crépuscule civil
Crépuscule nautique
Crépuscule astronomique
Lune
Durée de lumière visible
Longueur du jour
Tomorrow will be .
, % of the Moon is Illuminated

Extrêmes aujourd'hui

State Highs State Lows

Community

WunderPhotos

Upload Photos

1,791,942 Photos téléchargées !

WunderBlogs® & News

Nearby

Qualité de l'air

  Qualité de l'air Indice de la qualité de l'air Polluant
Not available.

Épaisseur de neige

Station Depth Altitude

Activité sismique

Ville Distance Mag. Time & Date
Minimum magnitude displayed is 2.5.

Températures des eaux côtières

Lieu Température

Stations météo à proximité